Time;durP1;ratioP1;P1;durP2;ratioP2;P2;SDS_P1;SDS_P2;PMS_P1;PMS_P2;Temp;Humidity;BMP_temperature;BMP_pressure;BME280_temperature;BME280_humidity;BME280_pressure;Samples;Min_cycle;Max_cycle;Signal;HPM_P1;HPM_P2
2021/12/27 00:04:11;;;;;;;124.47;103.00;;;19.60;47.30;;;;;;4341718;60;21110;-35
2021/12/27 00:09:12;;;;;;;126.47;105.87;;;19.70;47.40;;;;;;4346413;60;21164;-35
2021/12/27 00:14:13;;;;;;;119.75;100.40;;;19.60;47.20;;;;;;4421120;60;21092;-35
2021/12/27 00:19:13;;;;;;;116.72;99.53;;;19.70;47.30;;;;;;4343660;60;21092;-35
2021/12/27 00:24:14;;;;;;;119.75;101.10;;;19.60;47.20;;;;;;4347445;60;21087;-36
2021/12/27 00:29:15;;;;;;;117.47;100.35;;;19.70;47.40;;;;;;4350774;60;21059;-34
2021/12/27 00:34:17;;;;;;;122.13;100.72;;;19.70;47.30;;;;;;4347787;60;21557;-32
2021/12/27 00:39:17;;;;;;;117.90;98.50;;;19.70;47.20;;;;;;4395348;60;21071;-35
2021/12/27 00:44:18;;;;;;;120.00;99.93;;;19.60;47.20;;;;;;4374905;60;21634;-34
2021/12/27 00:49:19;;;;;;;113.80;93.70;;;19.70;47.20;;;;;;4343862;60;21087;-33
2021/12/27 00:54:20;;;;;;;110.07;93.62;;;19.70;47.30;;;;;;4389552;60;22364;-36
2021/12/27 00:59:21;;;;;;;108.82;91.60;;;19.60;47.20;;;;;;4350582;60;21255;-35
2021/12/27 01:04:23;;;;;;;110.18;91.95;;;19.60;47.30;;;;;;4359274;60;21186;-34
2021/12/27 01:09:36;;;;;;;110.95;93.65;;;19.70;47.20;;;;;;4380238;60;21136;-34
2021/12/27 01:14:55;;;;;;;109.68;90.95;;;19.60;47.10;;;;;;4356293;60;21526;-34
2021/12/27 01:19:56;;;;;;;111.55;92.65;;;19.70;47.20;;;;;;4375650;60;21677;-36
2021/12/27 01:24:58;;;;;;;107.43;90.95;;;19.60;47.10;;;;;;4376780;60;21108;-35
2021/12/27 01:29:59;;;;;;;106.05;89.62;;;19.60;47.10;;;;;;4366078;60;21537;-31
2021/12/27 01:35:00;;;;;;;100.97;84.82;;;19.60;47.10;;;;;;4365095;60;21044;-35
2021/12/27 01:40:02;;;;;;;108.03;89.82;;;19.60;47.10;;;;;;4347187;60;21541;-35
2021/12/27 01:45:04;;;;;;;103.87;87.15;;;19.60;47.10;;;;;;4357888;60;21048;-35
2021/12/27 01:50:06;;;;;;;101.15;86.43;;;19.60;47.00;;;;;;4338355;64;21714;-34
2021/12/27 01:55:07;;;;;;;100.55;84.45;;;19.60;47.10;;;;;;4354846;60;21143;-35
2021/12/27 02:00:09;;;;;;;103.75;85.78;;;19.60;47.00;;;;;;4352807;60;21087;-30
2021/12/27 02:05:11;;;;;;;99.45;83.85;;;19.60;47.00;;;;;;4357664;60;21106;-34
2021/12/27 02:10:13;;;;;;;99.62;84.45;;;19.70;47.10;;;;;;4368733;60;21518;-36
2021/12/27 02:15:14;;;;;;;99.72;82.72;;;19.60;47.00;;;;;;4344615;60;21044;-36
2021/12/27 02:20:27;;;;;;;98.62;82.30;;;19.60;47.00;;;;;;4349178;60;21195;-30
2021/12/27 02:25:30;;;;;;;93.75;79.37;;;19.70;47.00;;;;;;4356203;60;21116;-35
2021/12/27 02:30:32;;;;;;;94.22;79.15;;;19.60;47.00;;;;;;4353457;60;21107;-35
2021/12/27 02:35:57;;;;;;;94.15;79.18;;;19.60;46.90;;;;;;4338842;60;21084;-34
2021/12/27 02:40:59;;;;;;;90.62;77.25;;;19.60;46.90;;;;;;4363530;60;21072;-32
2021/12/27 02:46:05;;;;;;;91.57;77.80;;;19.60;46.90;;;;;;4338920;64;21101;-32
2021/12/27 02:51:08;;;;;;;92.65;79.80;;;19.60;46.90;;;;;;4354718;60;21215;-31
2021/12/27 02:56:09;;;;;;;89.37;74.87;;;19.60;46.80;;;;;;4347611;60;21083;-34
2021/12/27 03:01:13;;;;;;;87.40;72.68;;;19.60;46.80;;;;;;4345855;60;22029;-35
2021/12/27 03:06:14;;;;;;;90.75;74.55;;;19.60;46.90;;;;;;4348837;60;21044;-33
2021/12/27 03:11:16;;;;;;;87.22;74.00;;;19.60;46.80;;;;;;4377433;60;21059;-31
2021/12/27 03:16:18;;;;;;;81.65;72.40;;;19.60;46.90;;;;;;4341018;60;21041;-33
2021/12/27 03:21:20;;;;;;;84.45;73.12;;;19.60;46.80;;;;;;4338377;64;21132;-31
2021/12/27 03:26:21;;;;;;;82.00;70.25;;;19.60;46.70;;;;;;4339459;64;21063;-34
2021/12/27 03:31:22;;;;;;;85.28;71.47;;;19.60;46.70;;;;;;4358112;60;21211;-34
2021/12/27 03:36:23;;;;;;;78.37;65.10;;;19.60;46.80;;;;;;4346143;60;21633;-30
2021/12/27 03:41:25;;;;;;;79.03;66.70;;;19.60;46.80;;;;;;4364337;60;21583;-32
2021/12/27 03:46:26;;;;;;;79.62;67.28;;;19.60;46.70;;;;;;4339044;61;21617;-27
2021/12/27 03:51:27;;;;;;;78.05;66.07;;;19.60;46.80;;;;;;4339575;60;21076;-31
2021/12/27 03:56:31;;;;;;;77.85;65.55;;;19.60;46.70;;;;;;4345499;60;21629;-33
2021/12/27 04:01:31;;;;;;;77.32;65.10;;;19.60;46.70;;;;;;4369645;60;21099;-34
2021/12/27 04:06:32;;;;;;;75.75;63.35;;;19.60;46.60;;;;;;4350379;60;21609;-32
2021/12/27 04:11:33;;;;;;;77.15;65.15;;;19.60;46.60;;;;;;4341397;60;21096;-34
2021/12/27 04:16:34;;;;;;;75.28;64.87;;;19.60;46.60;;;;;;4360512;60;21060;-28
2021/12/27 04:21:36;;;;;;;75.47;64.18;;;19.60;46.60;;;;;;4413244;60;21092;-34
2021/12/27 04:26:37;;;;;;;74.72;62.30;;;19.60;46.60;;;;;;4342487;60;21537;-34
2021/12/27 04:31:38;;;;;;;68.97;59.55;;;19.60;46.60;;;;;;4399011;60;21036;-34
2021/12/27 04:36:39;;;;;;;71.82;60.15;;;19.60;46.70;;;;;;4370419;60;21582;-29
2021/12/27 04:41:39;;;;;;;72.53;60.22;;;19.60;46.60;;;;;;4342518;60;21589;-31
2021/12/27 04:46:40;;;;;;;68.62;58.83;;;19.60;46.60;;;;;;4339385;60;21533;-31
2021/12/27 04:51:43;;;;;;;67.47;57.30;;;19.50;46.50;;;;;;4343564;60;21100;-32
2021/12/27 04:56:46;;;;;;;70.00;59.42;;;19.60;46.50;;;;;;4340096;60;21542;-32
2021/12/27 05:01:47;;;;;;;65.28;55.58;;;19.60;46.50;;;;;;4341532;60;21544;-33
2021/12/27 05:06:47;;;;;;;62.70;54.28;;;19.60;46.60;;;;;;4342473;60;21143;-34
2021/12/27 05:11:48;;;;;;;65.90;56.42;;;19.50;46.60;;;;;;4376380;60;21091;-27
2021/12/27 05:16:49;;;;;;;62.10;53.78;;;19.60;46.70;;;;;;4354683;60;21534;-35
2021/12/27 05:21:50;;;;;;;64.62;54.38;;;19.60;46.60;;;;;;4343015;60;21080;-33
2021/12/27 05:26:51;;;;;;;63.28;54.85;;;19.60;46.60;;;;;;4341352;60;21048;-33
2021/12/27 05:31:52;;;;;;;61.75;53.55;;;19.50;46.60;;;;;;4395938;60;21043;-32
2021/12/27 05:36:53;;;;;;;63.72;54.17;;;19.60;46.80;;;;;;4367312;60;21075;-31
2021/12/27 05:41:54;;;;;;;61.15;51.95;;;19.50;46.70;;;;;;4338129;60;21071;-35
2021/12/27 05:46:55;;;;;;;60.58;52.47;;;19.60;46.90;;;;;;4346676;60;21560;-33
2021/12/27 05:51:56;;;;;;;57.38;50.25;;;19.60;46.80;;;;;;4339193;60;21079;-29
2021/12/27 05:56:56;;;;;;;59.72;50.35;;;19.60;46.90;;;;;;4347290;60;21574;-32
2021/12/27 06:01:57;;;;;;;57.85;50.28;;;19.50;46.90;;;;;;4346166;60;21059;-33
2021/12/27 06:06:58;;;;;;;58.50;49.97;;;19.60;47.00;;;;;;4348424;60;21081;-36
2021/12/27 06:11:59;;;;;;;58.38;49.72;;;19.60;47.00;;;;;;4347482;60;21593;-34
2021/12/27 06:17:00;;;;;;;55.25;47.15;;;19.50;47.00;;;;;;4369484;60;21168;-34
2021/12/27 06:22:01;;;;;;;56.22;49.30;;;19.60;47.10;;;;;;4349336;60;21729;-33
2021/12/27 06:27:02;;;;;;;57.50;48.90;;;19.60;47.10;;;;;;4376006;60;21131;-33
2021/12/27 06:32:04;;;;;;;54.95;48.35;;;19.60;47.10;;;;;;4339617;64;21051;-34
2021/12/27 06:37:04;;;;;;;51.05;45.45;;;19.60;47.10;;;;;;4354580;60;21079;-32
2021/12/27 06:42:06;;;;;;;55.30;47.90;;;19.60;47.10;;;;;;4354309;60;21533;-30
2021/12/27 06:47:08;;;;;;;54.08;47.22;;;19.60;47.10;;;;;;4353625;60;21059;-34
2021/12/27 06:52:11;;;;;;;52.22;45.72;;;19.50;47.00;;;;;;4386221;60;21101;-32
2021/12/27 06:57:12;;;;;;;53.92;46.88;;;19.60;47.10;;;;;;4339404;64;21859;-34
2021/12/27 07:02:13;;;;;;;52.15;45.20;;;19.60;47.00;;;;;;4338395;64;21047;-33
2021/12/27 07:07:14;;;;;;;52.60;45.03;;;19.60;47.10;;;;;;4382547;60;21067;-33
2021/12/27 07:12:15;;;;;;;53.28;45.75;;;19.50;47.00;;;;;;4381002;60;21084;-35
2021/12/27 07:17:17;;;;;;;50.75;44.38;;;19.60;47.10;;;;;;4382866;60;21637;-36
2021/12/27 07:22:18;;;;;;;53.30;46.30;;;19.60;47.00;;;;;;4356156;60;21142;-30
2021/12/27 07:27:19;;;;;;;51.60;44.13;;;19.60;47.00;;;;;;4350259;60;21159;-33
2021/12/27 07:32:20;;;;;;;50.17;44.33;;;19.60;47.00;;;;;;4372961;60;21549;-33
2021/12/27 07:37:21;;;;;;;51.67;45.08;;;19.60;47.00;;;;;;4338449;64;21593;-35
2021/12/27 07:42:22;;;;;;;51.70;44.13;;;19.60;47.00;;;;;;4375158;60;21772;-34
2021/12/27 07:47:23;;;;;;;56.15;47.03;;;19.60;47.00;;;;;;4373283;60;21195;-35
2021/12/27 07:52:24;;;;;;;53.97;45.45;;;19.50;47.00;;;;;;4360275;60;21710;-33
2021/12/27 07:57:25;;;;;;;52.90;45.78;;;19.50;46.90;;;;;;4356060;60;21102;-33
2021/12/27 08:02:26;;;;;;;58.33;48.13;;;19.50;46.90;;;;;;4351334;60;21098;-32
2021/12/27 08:07:27;;;;;;;56.75;47.13;;;19.60;47.00;;;;;;4362922;60;21095;-34
2021/12/27 08:12:29;;;;;;;54.67;46.60;;;19.60;47.10;;;;;;4361096;60;22219;-32
2021/12/27 08:17:29;;;;;;;58.55;48.33;;;19.60;47.20;;;;;;4358735;60;21136;-28
2021/12/27 08:22:30;;;;;;;63.15;48.50;;;19.70;47.50;;;;;;4383411;60;21748;-36
2021/12/27 08:27:31;;;;;;;63.75;48.38;;;19.80;47.90;;;;;;4354104;60;21155;-32
2021/12/27 08:32:34;;;;;;;61.25;48.72;;;19.80;48.20;;;;;;4349904;60;21112;-30
2021/12/27 08:37:35;;;;;;;62.60;49.22;;;19.90;48.40;;;;;;4352451;60;21190;-32
2021/12/27 08:42:36;;;;;;;64.70;51.45;;;20.00;48.60;;;;;;4338228;64;21106;-30
2021/12/27 08:47:37;;;;;;;67.95;51.70;;;20.00;49.40;;;;;;4338389;64;21072;-33
2021/12/27 08:52:39;;;;;;;68.22;50.65;;;20.10;49.00;;;;;;4345351;60;21103;-34
2021/12/27 08:57:40;;;;;;;66.60;52.40;;;20.10;49.20;;;;;;4338240;64;21592;-33
2021/12/27 09:02:41;;;;;;;71.28;55.42;;;20.10;49.30;;;;;;4359063;60;21091;-35
2021/12/27 09:07:42;;;;;;;70.40;55.20;;;20.20;49.70;;;;;;4344160;60;21137;-35
2021/12/27 09:12:43;;;;;;;70.45;57.00;;;20.20;49.70;;;;;;4352816;60;21525;-33
2021/12/27 09:17:45;;;;;;;82.40;59.40;;;20.30;49.80;;;;;;4348656;60;21337;-32
2021/12/27 09:22:46;;;;;;;78.18;59.03;;;20.30;49.80;;;;;;4343097;60;21518;-33
2021/12/27 09:27:47;;;;;;;74.53;59.50;;;20.30;50.00;;;;;;4358154;60;21149;-37
2021/12/27 09:32:50;;;;;;;77.32;60.45;;;20.30;50.10;;;;;;4338329;64;21076;-37
2021/12/27 09:37:51;;;;;;;75.85;59.47;;;20.30;50.10;;;;;;4338307;64;21566;-34
2021/12/27 09:42:53;;;;;;;81.95;63.80;;;20.40;50.40;;;;;;4337505;64;21075;-35
2021/12/27 09:47:54;;;;;;;87.60;67.00;;;20.40;50.60;;;;;;4365653;60;21534;-37
2021/12/27 09:52:55;;;;;;;84.45;65.95;;;20.40;50.60;;;;;;4349242;60;21102;-34
2021/12/27 09:57:57;;;;;;;86.15;66.82;;;20.40;50.80;;;;;;4340896;60;21051;-33
2021/12/27 10:02:58;;;;;;;92.78;71.65;;;20.40;50.90;;;;;;4362898;60;21108;-35
2021/12/27 10:08:00;;;;;;;91.25;71.75;;;20.50;51.00;;;;;;4339435;60;21043;-31
2021/12/27 10:13:11;;;;;;;91.57;72.60;;;20.50;51.10;;;;;;4353301;60;21498;-35
2021/12/27 10:18:14;;;;;;;95.18;73.68;;;20.50;51.20;;;;;;4356577;60;21577;-31
2021/12/27 10:23:19;;;;;;;99.65;78.57;;;20.50;51.30;;;;;;4343257;60;21063;-35
2021/12/27 10:28:26;;;;;;;95.97;73.05;;;20.60;51.60;;;;;;4371636;60;21075;-36
2021/12/27 10:33:27;;;;;;;99.17;77.60;;;20.60;51.60;;;;;;4357223;60;21063;-31
2021/12/27 10:38:31;;;;;;;103.70;81.93;;;20.60;51.60;;;;;;4341832;60;21032;-35
2021/12/27 10:43:56;;;;;;;105.40;83.07;;;20.60;51.70;;;;;;4370136;60;21095;-34
2021/12/27 10:48:59;;;;;;;110.15;86.85;;;20.60;51.70;;;;;;4338675;64;21132;-33
2021/12/27 10:54:01;;;;;;;106.63;83.55;;;20.60;51.90;;;;;;4347230;60;21598;-36
2021/12/27 10:59:02;;;;;;;119.47;90.82;;;20.60;51.90;;;;;;4339046;64;21135;-35
2021/12/27 11:04:04;;;;;;;120.70;90.70;;;20.60;51.60;;;;;;4340359;60;21071;-35
2021/12/27 11:09:04;;;;;;;125.43;96.63;;;20.60;51.60;;;;;;4353554;60;21055;-34
2021/12/27 11:14:05;;;;;;;121.25;96.12;;;20.50;51.30;;;;;;4350497;60;21048;-34
2021/12/27 11:19:06;;;;;;;129.48;98.22;;;20.50;51.30;;;;;;4356393;60;21931;-35
2021/12/27 11:24:09;;;;;;;135.55;100.03;;;20.50;51.20;;;;;;4345786;60;21116;-43
2021/12/27 11:29:22;;;;;;;133.55;105.70;;;20.50;51.30;;;;;;4347806;60;21055;-38
2021/12/27 11:34:23;;;;;;;141.10;110.63;;;20.50;51.10;;;;;;4363447;60;21087;-34
2021/12/27 11:39:29;;;;;;;143.85;112.22;;;20.60;51.30;;;;;;4348819;60;21123;-37
2021/12/27 11:45:36;;;;;;;145.18;113.37;;;20.60;51.40;;;;;;4354130;60;21494;-32
2021/12/27 11:51:03;;;;;;;149.65;119.00;;;20.60;51.60;;;;;;4352849;60;21187;-38
2021/12/27 11:56:08;;;;;;;152.02;120.32;;;20.60;51.70;;;;;;4376373;60;21095;-36
2021/12/27 12:03:12;;;;;;;159.15;124.50;;;20.60;51.80;;;;;;4363889;60;21553;-36
2021/12/27 12:08:19;;;;;;;159.87;125.70;;;20.70;52.10;;;;;;4338839;61;21031;-36
2021/12/27 12:13:40;;;;;;;157.10;124.72;;;20.70;52.10;;;;;;4397414;60;21094;-31
2021/12/27 12:23:57;;;;;;;168.93;132.90;;;20.70;52.20;;;;;;4337786;64;21646;-34
2021/12/27 12:29:00;;;;;;;163.90;126.35;;;20.60;51.80;;;;;;4357262;60;21075;-34
2021/12/27 12:34:13;;;;;;;159.15;125.30;;;20.60;51.70;;;;;;4396778;60;21589;-33
2021/12/27 12:39:14;;;;;;;163.65;125.60;;;20.60;51.70;;;;;;4360625;60;21091;-35
2021/12/27 12:44:17;;;;;;;165.93;126.12;;;20.60;51.60;;;;;;4338746;60;21179;-35
2021/12/27 12:49:22;;;;;;;165.37;125.05;;;20.60;51.60;;;;;;4388779;60;21590;-35
2021/12/27 12:54:32;;;;;;;161.68;126.93;;;20.70;51.80;;;;;;4347505;60;21054;-38
2021/12/27 12:59:57;;;;;;;164.60;129.38;;;20.70;51.90;;;;;;4338357;64;21497;-36
2021/12/27 13:05:12;;;;;;;171.25;130.45;;;20.70;52.00;;;;;;4338482;60;21071;-36
2021/12/27 13:10:36;;;;;;;170.45;131.12;;;20.70;52.20;;;;;;4340846;60;21118;-35
2021/12/27 13:15:40;;;;;;;171.43;132.95;;;20.70;52.20;;;;;;4364297;60;21122;-33
2021/12/27 13:20:49;;;;;;;172.32;131.68;;;20.70;52.10;;;;;;4341661;60;21091;-34
2021/12/27 13:26:02;;;;;;;177.38;133.65;;;20.70;52.20;;;;;;4339954;60;22206;-33
2021/12/27 13:31:26;;;;;;;175.80;132.68;;;20.70;52.30;;;;;;4339690;60;21120;-34
2021/12/27 13:36:33;;;;;;;176.40;132.48;;;20.70;52.30;;;;;;4338325;64;21131;-32
2021/12/27 13:41:49;;;;;;;172.50;129.68;;;20.70;52.40;;;;;;4407184;60;21080;-37
2021/12/27 13:46:53;;;;;;;191.73;145.27;;;20.70;52.50;;;;;;4351972;60;21201;-36
2021/12/27 13:52:03;;;;;;;192.60;145.40;;;20.70;52.20;;;;;;4340316;60;21076;-35
2021/12/27 13:57:05;;;;;;;194.93;146.57;;;20.70;52.10;;;;;;4338469;64;21088;-36
2021/12/27 14:02:07;;;;;;;187.27;142.48;;;20.60;51.90;;;;;;4342562;60;21537;-36
2021/12/27 14:07:10;;;;;;;192.40;147.85;;;20.60;51.90;;;;;;4378635;60;21051;-35
2021/12/27 14:12:22;;;;;;;196.48;149.35;;;20.60;51.70;;;;;;4365218;60;21537;-34
2021/12/27 14:17:28;;;;;;;192.20;146.45;;;20.60;51.60;;;;;;4342461;60;21553;-34
2021/12/27 14:22:57;;;;;;;192.87;147.43;;;20.60;51.60;;;;;;4337932;64;21537;-33
2021/12/27 14:27:58;;;;;;;194.27;146.73;;;20.60;51.50;;;;;;4342834;60;21568;-35
2021/12/27 14:33:06;;;;;;;202.30;151.82;;;20.60;51.60;;;;;;4371607;60;21079;-32
2021/12/27 14:38:24;;;;;;;192.50;143.60;;;20.60;51.60;;;;;;4351502;60;21100;-31
2021/12/27 14:43:29;;;;;;;193.43;149.52;;;20.60;51.70;;;;;;4359047;60;21178;-34
2021/12/27 14:48:30;;;;;;;187.27;143.80;;;20.60;51.80;;;;;;4338102;64;21581;-34
2021/12/27 14:53:31;;;;;;;190.25;144.80;;;20.60;51.90;;;;;;4378812;60;21076;-34
2021/12/27 14:58:32;;;;;;;200.38;152.18;;;20.60;52.00;;;;;;4372191;60;21530;-34
2021/12/27 15:03:33;;;;;;;191.93;142.70;;;20.60;52.00;;;;;;4372107;60;21072;-30
2021/12/27 15:08:34;;;;;;;193.00;148.30;;;20.60;52.00;;;;;;4369460;60;21206;-35
2021/12/27 15:13:36;;;;;;;193.77;149.02;;;20.60;52.10;;;;;;4390980;60;21063;-34
2021/12/27 15:18:39;;;;;;;257.50;197.85;;;20.60;52.10;;;;;;4376306;60;21063;-33
2021/12/27 15:23:39;;;;;;;279.67;207.68;;;20.60;50.60;;;;;;4355221;60;21098;-33
2021/12/27 15:28:41;;;;;;;285.33;219.73;;;20.50;50.00;;;;;;4352550;60;21127;-34
2021/12/27 15:33:42;;;;;;;284.30;211.50;;;20.50;49.50;;;;;;4345363;60;21059;-32
2021/12/27 15:38:45;;;;;;;278.48;215.85;;;20.50;49.20;;;;;;4359724;60;21143;-33
2021/12/27 15:43:46;;;;;;;282.17;215.75;;;20.50;49.10;;;;;;4369713;60;22028;-34
2021/12/27 15:48:46;;;;;;;288.70;220.00;;;20.50;48.90;;;;;;4338455;64;21075;-34
2021/12/27 15:53:47;;;;;;;291.42;220.63;;;20.50;49.00;;;;;;4338862;61;21367;-36
2021/12/27 15:58:48;;;;;;;291.92;224.90;;;20.50;49.00;;;;;;4363108;60;21423;-34
2021/12/27 16:03:49;;;;;;;291.02;215.12;;;20.50;48.90;;;;;;4386261;60;21051;-33
2021/12/27 16:08:50;;;;;;;311.75;237.00;;;20.50;49.70;;;;;;4338984;60;21155;-35
2021/12/27 16:13:51;;;;;;;306.42;234.65;;;20.40;48.90;;;;;;4345768;60;22075;-34
2021/12/27 16:18:51;;;;;;;299.00;231.27;;;20.40;49.00;;;;;;4347490;60;21128;-35
2021/12/27 16:23:52;;;;;;;290.52;213.90;;;20.40;49.10;;;;;;4346499;60;21174;-30
2021/12/27 16:28:53;;;;;;;304.75;234.20;;;20.30;49.00;;;;;;4338341;64;21055;-31
2021/12/27 16:33:55;;;;;;;304.50;234.52;;;20.30;49.00;;;;;;4356636;60;21634;-28
2021/12/27 16:38:55;;;;;;;301.40;234.30;;;20.30;49.00;;;;;;4372894;60;21521;-34
2021/12/27 16:43:56;;;;;;;298.90;229.15;;;20.30;49.10;;;;;;4343962;60;21092;-33
2021/12/27 16:48:57;;;;;;;301.92;227.73;;;20.20;49.00;;;;;;4356122;60;21102;-34
2021/12/27 16:53:59;;;;;;;289.65;224.55;;;20.20;49.10;;;;;;4339745;60;21060;-35
2021/12/27 16:58:59;;;;;;;297.17;232.35;;;20.20;49.10;;;;;;4338667;62;21044;-34
2021/12/27 17:04:00;;;;;;;294.77;224.35;;;20.20;49.10;;;;;;4381396;60;21075;-36
2021/12/27 17:09:03;;;;;;;299.58;230.57;;;20.20;49.10;;;;;;4340866;60;21132;-35
2021/12/27 17:14:04;;;;;;;292.23;224.55;;;20.20;49.10;;;;;;4338179;64;21135;-34
2021/12/27 17:19:05;;;;;;;280.67;219.18;;;20.20;49.20;;;;;;4338992;60;21110;-35
2021/12/27 17:24:07;;;;;;;287.70;219.07;;;20.20;49.20;;;;;;4358852;60;21111;-35
2021/12/27 17:29:08;;;;;;;284.15;222.30;;;20.20;49.20;;;;;;4351268;60;21047;-32
2021/12/27 17:34:09;;;;;;;290.42;226.23;;;20.10;49.20;;;;;;4373539;60;21573;-34
2021/12/27 17:39:11;;;;;;;295.70;228.45;;;20.10;49.10;;;;;;4339157;60;21154;-34
2021/12/27 17:44:12;;;;;;;284.60;219.45;;;20.10;49.10;;;;;;4355360;60;21071;-31
2021/12/27 17:49:13;;;;;;;280.77;219.10;;;20.10;49.10;;;;;;4351998;60;21417;-34
2021/12/27 17:54:14;;;;;;;290.40;225.50;;;20.10;49.20;;;;;;4344703;60;21064;-34
2021/12/27 17:59:15;;;;;;;278.40;214.57;;;20.10;49.10;;;;;;4366345;60;21088;-35
2021/12/27 18:04:19;;;;;;;283.90;220.65;;;20.10;49.10;;;;;;4338892;64;21164;-34
2021/12/27 18:09:21;;;;;;;280.62;219.15;;;20.10;49.10;;;;;;4356900;60;21050;-34
2021/12/27 18:14:22;;;;;;;281.33;218.90;;;20.10;49.10;;;;;;4353295;60;21159;-36
2021/12/27 18:19:23;;;;;;;291.50;228.93;;;20.10;49.20;;;;;;4353314;60;21345;-34
2021/12/27 18:24:24;;;;;;;286.85;221.00;;;20.10;49.10;;;;;;4375648;60;21518;-37
2021/12/27 18:29:27;;;;;;;277.52;219.75;;;20.10;49.10;;;;;;4355590;60;21135;-35
2021/12/27 18:34:30;;;;;;;283.98;219.30;;;20.10;49.10;;;;;;4339125;61;21594;-34
2021/12/27 18:39:32;;;;;;;282.37;223.07;;;20.10;49.10;;;;;;4338404;61;21123;-36
2021/12/27 18:44:33;;;;;;;266.25;204.10;;;20.10;49.10;;;;;;4349328;60;21055;-36
2021/12/27 18:49:33;;;;;;;275.30;215.95;;;20.10;49.10;;;;;;4349352;60;21835;-36
2021/12/27 18:54:35;;;;;;;268.77;210.35;;;20.10;49.10;;;;;;4379350;60;21063;-33
2021/12/27 18:59:36;;;;;;;286.62;218.37;;;20.10;49.10;;;;;;4358006;60;21113;-33
2021/12/27 19:04:37;;;;;;;281.73;218.85;;;20.10;49.10;;;;;;4359780;60;21501;-36
2021/12/27 19:09:38;;;;;;;278.77;216.32;;;20.00;49.00;;;;;;4338375;64;21642;-34
2021/12/27 19:14:39;;;;;;;270.00;212.00;;;20.00;49.00;;;;;;4339560;64;21114;-36
2021/12/27 19:19:40;;;;;;;272.55;212.15;;;20.10;49.10;;;;;;4347890;60;21228;-36
2021/12/27 19:24:41;;;;;;;273.75;214.40;;;20.00;49.00;;;;;;4356118;60;21127;-35
2021/12/27 19:29:42;;;;;;;278.62;220.00;;;20.00;49.00;;;;;;4350295;60;21522;-38
2021/12/27 19:34:43;;;;;;;267.85;207.57;;;20.00;49.00;;;;;;4341180;60;21091;-36
2021/12/27 19:39:44;;;;;;;267.33;207.65;;;20.00;49.00;;;;;;4342865;60;21067;-35
2021/12/27 19:44:45;;;;;;;272.70;215.12;;;20.00;49.00;;;;;;4350766;60;21080;-35
2021/12/27 19:49:46;;;;;;;269.23;211.80;;;20.00;49.00;;;;;;4338796;64;21095;-36
2021/12/27 19:54:47;;;;;;;275.62;213.90;;;20.00;48.90;;;;;;4344894;60;21067;-35
2021/12/27 19:59:47;;;;;;;255.95;199.02;;;20.00;49.00;;;;;;4353565;60;21182;-37
2021/12/27 20:04:48;;;;;;;267.77;209.43;;;20.00;48.80;;;;;;4349630;60;21182;-35
2021/12/27 20:09:51;;;;;;;255.62;199.15;;;20.00;48.80;;;;;;4340140;60;21096;-35
2021/12/27 20:14:52;;;;;;;261.15;205.52;;;20.00;48.80;;;;;;4352292;60;21626;-36
2021/12/27 20:19:53;;;;;;;262.33;204.40;;;20.00;48.80;;;;;;4362341;60;21183;-36
2021/12/27 20:24:53;;;;;;;261.58;206.27;;;20.00;49.00;;;;;;4373316;60;21534;-34
2021/12/27 20:29:54;;;;;;;262.12;205.05;;;20.00;48.70;;;;;;4385125;60;21178;-36
2021/12/27 20:34:56;;;;;;;257.95;200.98;;;20.00;48.70;;;;;;4349189;60;21087;-35
2021/12/27 20:39:57;;;;;;;255.35;196.55;;;20.00;48.70;;;;;;4364084;60;22110;-34
2021/12/27 20:44:58;;;;;;;253.95;200.15;;;20.00;48.60;;;;;;4375238;60;21095;-35
2021/12/27 20:49:59;;;;;;;257.95;201.98;;;20.00;48.60;;;;;;4363312;60;21079;-33
2021/12/27 20:55:00;;;;;;;251.50;198.73;;;20.00;48.60;;;;;;4344856;60;21266;-35
2021/12/27 21:00:03;;;;;;;253.95;198.07;;;20.00;48.60;;;;;;4354175;60;21086;-37
2021/12/27 21:05:05;;;;;;;247.18;192.48;;;20.00;48.50;;;;;;4348169;60;21598;-34
2021/12/27 21:10:08;;;;;;;246.62;190.02;;;20.00;48.50;;;;;;4340406;60;21043;-36
2021/12/27 21:15:10;;;;;;;248.55;192.70;;;20.00;48.40;;;;;;4365590;60;21522;-30
2021/12/27 21:20:12;;;;;;;245.55;189.82;;;20.00;48.40;;;;;;4343305;60;21140;-34
2021/12/27 21:25:14;;;;;;;241.93;189.80;;;20.00;48.40;;;;;;4367047;60;21085;-36
2021/12/27 21:30:15;;;;;;;247.18;189.85;;;20.00;48.40;;;;;;4367684;60;21191;-34
2021/12/27 21:35:17;;;;;;;232.75;182.40;;;20.00;48.30;;;;;;4344107;60;21560;-33
2021/12/27 21:40:20;;;;;;;230.37;178.20;;;20.00;48.20;;;;;;4338670;64;21084;-35
2021/12/27 21:45:24;;;;;;;242.98;188.68;;;20.00;48.20;;;;;;4345173;60;21055;-36
2021/12/27 21:50:29;;;;;;;244.07;188.75;;;20.00;48.10;;;;;;4353530;60;21116;-29
2021/12/27 21:55:33;;;;;;;228.70;177.15;;;19.90;48.10;;;;;;4348207;60;21063;-35
2021/12/27 22:00:37;;;;;;;235.18;182.85;;;20.00;48.10;;;;;;4359839;60;21127;-37
2021/12/27 22:05:39;;;;;;;235.68;182.27;;;19.90;48.00;;;;;;4362088;60;21533;-34
2021/12/27 22:10:46;;;;;;;231.68;180.52;;;19.90;48.00;;;;;;4353953;60;21638;-35
2021/12/27 22:15:47;;;;;;;225.60;169.15;;;19.90;47.90;;;;;;4339508;60;21499;-34
2021/12/27 22:20:49;;;;;;;226.20;174.20;;;19.90;47.80;;;;;;4388388;60;21163;-36
2021/12/27 22:25:50;;;;;;;222.45;171.60;;;19.90;47.80;;;;;;4366146;60;21059;-35
2021/12/27 22:30:51;;;;;;;232.07;175.82;;;19.90;47.90;;;;;;4358346;60;21147;-34
2021/12/27 22:35:52;;;;;;;226.07;172.90;;;19.90;47.80;;;;;;4373433;60;21116;-33
2021/12/27 22:40:53;;;;;;;225.62;173.27;;;19.90;47.80;;;;;;4351358;60;21103;-33
2021/12/27 22:45:54;;;;;;;226.05;170.32;;;19.90;47.70;;;;;;4339333;64;21531;-33
2021/12/27 22:50:56;;;;;;;217.48;166.50;;;19.90;47.70;;;;;;4354725;60;21123;-33
2021/12/27 22:55:57;;;;;;;220.52;168.05;;;19.90;47.60;;;;;;4344976;60;21617;-33
2021/12/27 23:00:58;;;;;;;222.77;167.27;;;19.90;47.60;;;;;;4356985;60;21095;-33
2021/12/27 23:06:00;;;;;;;219.60;163.60;;;19.90;47.60;;;;;;4339414;60;21046;-36
2021/12/27 23:11:01;;;;;;;226.50;171.13;;;19.90;47.50;;;;;;4391384;60;21530;-34
2021/12/27 23:16:03;;;;;;;218.93;164.73;;;19.90;47.50;;;;;;4359480;60;21044;-35
2021/12/27 23:21:05;;;;;;;210.40;155.40;;;19.90;47.40;;;;;;4372404;60;21136;-34
2021/12/27 23:26:07;;;;;;;200.35;153.18;;;19.90;47.50;;;;;;4338338;64;21179;-31
2021/12/27 23:31:08;;;;;;;213.95;160.52;;;19.90;47.50;;;;;;4340340;60;21080;-35
2021/12/27 23:36:09;;;;;;;210.65;158.30;;;19.90;47.40;;;;;;4339567;64;22005;-35
2021/12/27 23:41:10;;;;;;;210.95;159.30;;;19.90;47.40;;;;;;4352559;60;21266;-36
2021/12/27 23:46:11;;;;;;;205.70;153.23;;;19.90;47.30;;;;;;4354376;60;21108;-36
2021/12/27 23:51:12;;;;;;;203.52;152.35;;;19.90;47.30;;;;;;4342686;60;21067;-34
2021/12/27 23:56:13;;;;;;;204.55;153.95;;;19.90;47.30;;;;;;4352110;60;21055;-35
